sensor_id;sensor_type;location;lat;lon;timestamp;temperature;humidity
14934;DHT22;7560;51.364;12.384;2024-02-21T00:03:47;9.30;99.90
14934;DHT22;7560;51.364;12.384;2024-02-21T00:08:48;9.30;99.90
14934;DHT22;7560;51.364;12.384;2024-02-21T00:13:50;9.30;99.90
14934;DHT22;7560;51.364;12.384;2024-02-21T00:18:52;9.30;99.90
14934;DHT22;7560;51.364;12.384;2024-02-21T00:23:54;9.20;99.90
14934;DHT22;7560;51.364;12.384;2024-02-21T00:28:56;9.20;99.90
14934;DHT22;7560;51.364;12.384;2024-02-21T00:33:57;9.10;99.90
14934;DHT22;7560;51.364;12.384;2024-02-21T00:38:59;9.10;99.90
14934;DHT22;7560;51.364;12.384;2024-02-21T00:44:01;9.10;99.90
14934;DHT22;7560;51.364;12.384;2024-02-21T00:49:03;9.10;99.90
14934;DHT22;7560;51.364;12.384;2024-02-21T00:54:05;9.10;99.90
14934;DHT22;7560;51.364;12.384;2024-02-21T00:59:07;9.00;99.90
14934;DHT22;7560;51.364;12.384;2024-02-21T01:04:09;9.10;99.90
14934;DHT22;7560;51.364;12.384;2024-02-21T01:09:11;9.00;99.90
14934;DHT22;7560;51.364;12.384;2024-02-21T01:14:13;9.00;99.90
14934;DHT22;7560;51.364;12.384;2024-02-21T01:19:15;9.00;99.90
14934;DHT22;7560;51.364;12.384;2024-02-21T01:24:17;9.00;99.90
14934;DHT22;7560;51.364;12.384;2024-02-21T01:29:19;9.10;99.90
14934;DHT22;7560;51.364;12.384;2024-02-21T01:34:20;9.10;99.90
14934;DHT22;7560;51.364;12.384;2024-02-21T01:39:22;9.10;99.90
14934;DHT22;7560;51.364;12.384;2024-02-21T01:44:25;9.10;99.90
14934;DHT22;7560;51.364;12.384;2024-02-21T01:49:26;9.10;99.90
14934;DHT22;7560;51.364;12.384;2024-02-21T01:54:28;9.10;99.90
14934;DHT22;7560;51.364;12.384;2024-02-21T01:59:30;9.10;99.90
14934;DHT22;7560;51.364;12.384;2024-02-21T02:04:32;9.10;99.90
14934;DHT22;7560;51.364;12.384;2024-02-21T02:09:35;9.10;99.90
14934;DHT22;7560;51.364;12.384;2024-02-21T02:14:36;9.20;99.90
14934;DHT22;7560;51.364;12.384;2024-02-21T02:19:38;9.10;99.90
14934;DHT22;7560;51.364;12.384;2024-02-21T02:24:41;9.10;99.90
14934;DHT22;7560;51.364;12.384;2024-02-21T02:29:43;9.10;99.90
14934;DHT22;7560;51.364;12.384;2024-02-21T02:34:45;9.10;99.90
14934;DHT22;7560;51.364;12.384;2024-02-21T02:39:47;9.10;99.90
14934;DHT22;7560;51.364;12.384;2024-02-21T02:44:49;9.00;99.90
14934;DHT22;7560;51.364;12.384;2024-02-21T02:49:50;9.10;99.90
14934;DHT22;7560;51.364;12.384;2024-02-21T02:54:53;9.10;99.90
14934;DHT22;7560;51.364;12.384;2024-02-21T02:59:57;9.10;99.90
14934;DHT22;7560;51.364;12.384;2024-02-21T03:04:58;9.10;99.90
14934;DHT22;7560;51.364;12.384;2024-02-21T03:10:01;9.10;99.90
14934;DHT22;7560;51.364;12.384;2024-02-21T03:15:03;9.10;99.90
14934;DHT22;7560;51.364;12.384;2024-02-21T03:20:06;9.10;99.90
14934;DHT22;7560;51.364;12.384;2024-02-21T03:25:13;9.10;99.90
14934;DHT22;7560;51.364;12.384;2024-02-21T03:30:16;9.10;99.90
14934;DHT22;7560;51.364;12.384;2024-02-21T03:35:18;9.10;99.90
14934;DHT22;7560;51.364;12.384;2024-02-21T03:40:20;9.10;99.90
14934;DHT22;7560;51.364;12.384;2024-02-21T03:45:22;9.00;99.90
14934;DHT22;7560;51.364;12.384;2024-02-21T03:50:24;9.10;99.90
14934;DHT22;7560;51.364;12.384;2024-02-21T03:55:27;9.20;99.90
14934;DHT22;7560;51.364;12.384;2024-02-21T04:00:29;9.10;99.90
14934;DHT22;7560;51.364;12.384;2024-02-21T04:05:31;9.10;99.90
14934;DHT22;7560;51.364;12.384;2024-02-21T04:10:33;9.20;99.90
14934;DHT22;7560;51.364;12.384;2024-02-21T04:15:34;9.20;99.90
14934;DHT22;7560;51.364;12.384;2024-02-21T04:20:36;9.20;99.90
14934;DHT22;7560;51.364;12.384;2024-02-21T04:25:38;9.10;99.90
14934;DHT22;7560;51.364;12.384;2024-02-21T04:30:40;9.10;99.90
14934;DHT22;7560;51.364;12.384;2024-02-21T04:35:42;9.10;99.90
14934;DHT22;7560;51.364;12.384;2024-02-21T04:40:43;9.10;99.90
14934;DHT22;7560;51.364;12.384;2024-02-21T04:45:45;9.10;99.90
14934;DHT22;7560;51.364;12.384;2024-02-21T04:50:47;9.10;99.90
14934;DHT22;7560;51.364;12.384;2024-02-21T04:55:49;9.10;99.90
14934;DHT22;7560;51.364;12.384;2024-02-21T05:00:51;9.00;99.90
14934;DHT22;7560;51.364;12.384;2024-02-21T05:05:53;9.10;99.90
14934;DHT22;7560;51.364;12.384;2024-02-21T05:10:55;9.10;99.90
14934;DHT22;7560;51.364;12.384;2024-02-21T05:15:57;9.10;99.90
14934;DHT22;7560;51.364;12.384;2024-02-21T05:21:03;9.10;99.90
14934;DHT22;7560;51.364;12.384;2024-02-21T05:26:05;9.20;99.90
14934;DHT22;7560;51.364;12.384;2024-02-21T05:31:07;9.20;99.90
14934;DHT22;7560;51.364;12.384;2024-02-21T05:36:08;9.20;99.90
14934;DHT22;7560;51.364;12.384;2024-02-21T05:41:10;9.10;99.90
14934;DHT22;7560;51.364;12.384;2024-02-21T05:46:13;9.10;99.90
14934;DHT22;7560;51.364;12.384;2024-02-21T05:51:15;9.00;99.90
14934;DHT22;7560;51.364;12.384;2024-02-21T05:56:16;9.10;99.90
14934;DHT22;7560;51.364;12.384;2024-02-21T06:01:21;9.00;99.90
14934;DHT22;7560;51.364;12.384;2024-02-21T06:06:23;9.00;99.90
14934;DHT22;7560;51.364;12.384;2024-02-21T06:11:25;9.00;99.90
14934;DHT22;7560;51.364;12.384;2024-02-21T06:16:27;8.80;99.90
14934;DHT22;7560;51.364;12.384;2024-02-21T06:21:29;8.60;99.90
14934;DHT22;7560;51.364;12.384;2024-02-21T06:26:31;8.50;99.90
14934;DHT22;7560;51.364;12.384;2024-02-21T06:31:34;8.50;99.90
14934;DHT22;7560;51.364;12.384;2024-02-21T06:36:36;8.50;99.90
14934;DHT22;7560;51.364;12.384;2024-02-21T06:41:38;8.80;99.90
14934;DHT22;7560;51.364;12.384;2024-02-21T06:46:40;8.80;99.90
14934;DHT22;7560;51.364;12.384;2024-02-21T06:51:42;8.90;99.90
14934;DHT22;7560;51.364;12.384;2024-02-21T06:56:44;8.90;99.90
14934;DHT22;7560;51.364;12.384;2024-02-21T07:01:53;9.00;99.90
14934;DHT22;7560;51.364;12.384;2024-02-21T07:06:56;9.00;99.90
14934;DHT22;7560;51.364;12.384;2024-02-21T07:11:58;9.00;99.90
14934;DHT22;7560;51.364;12.384;2024-02-21T07:17:00;9.10;99.90
14934;DHT22;7560;51.364;12.384;2024-02-21T07:22:02;9.20;99.90
14934;DHT22;7560;51.364;12.384;2024-02-21T07:27:04;9.20;99.90
14934;DHT22;7560;51.364;12.384;2024-02-21T07:32:06;9.20;99.90
14934;DHT22;7560;51.364;12.384;2024-02-21T07:37:08;9.30;99.90
14934;DHT22;7560;51.364;12.384;2024-02-21T07:42:10;9.30;99.90
14934;DHT22;7560;51.364;12.384;2024-02-21T07:47:13;9.30;99.90
14934;DHT22;7560;51.364;12.384;2024-02-21T07:52:15;9.30;99.90
14934;DHT22;7560;51.364;12.384;2024-02-21T07:57:17;9.40;99.90
14934;DHT22;7560;51.364;12.384;2024-02-21T08:02:18;9.50;99.90
14934;DHT22;7560;51.364;12.384;2024-02-21T08:07:20;9.70;99.90
14934;DHT22;7560;51.364;12.384;2024-02-21T08:12:22;9.80;99.90
14934;DHT22;7560;51.364;12.384;2024-02-21T08:17:24;10.00;99.90
14934;DHT22;7560;51.364;12.384;2024-02-21T08:22:26;10.00;99.90
14934;DHT22;7560;51.364;12.384;2024-02-21T08:27:28;10.00;99.90
14934;DHT22;7560;51.364;12.384;2024-02-21T08:32:30;10.30;99.90
14934;DHT22;7560;51.364;12.384;2024-02-21T08:37:32;10.40;99.90
14934;DHT22;7560;51.364;12.384;2024-02-21T08:42:39;10.30;99.90
14934;DHT22;7560;51.364;12.384;2024-02-21T08:47:42;10.20;99.90
14934;DHT22;7560;51.364;12.384;2024-02-21T08:52:44;10.10;99.90
14934;DHT22;7560;51.364;12.384;2024-02-21T08:57:45;10.10;99.90
14934;DHT22;7560;51.364;12.384;2024-02-21T09:02:47;10.00;99.90
14934;DHT22;7560;51.364;12.384;2024-02-21T09:07:49;9.90;99.90
14934;DHT22;7560;51.364;12.384;2024-02-21T09:12:51;9.80;99.90
14934;DHT22;7560;51.364;12.384;2024-02-21T09:17:53;9.90;99.90
14934;DHT22;7560;51.364;12.384;2024-02-21T09:22:55;9.90;99.90
14934;DHT22;7560;51.364;12.384;2024-02-21T09:27:57;9.90;99.90
14934;DHT22;7560;51.364;12.384;2024-02-21T09:33:00;10.10;99.90
14934;DHT22;7560;51.364;12.384;2024-02-21T09:38:03;10.50;99.90
14934;DHT22;7560;51.364;12.384;2024-02-21T09:43:05;10.50;99.90
14934;DHT22;7560;51.364;12.384;2024-02-21T09:53:38;10.40;99.90
14934;DHT22;7560;51.364;12.384;2024-02-21T09:58:41;10.50;99.90
14934;DHT22;7560;51.364;12.384;2024-02-21T10:03:43;10.50;99.90
14934;DHT22;7560;51.364;12.384;2024-02-21T10:08:52;10.60;99.90
14934;DHT22;7560;51.364;12.384;2024-02-21T10:14:07;10.80;99.90
14934;DHT22;7560;51.364;12.384;2024-02-21T10:19:19;11.00;99.90
14934;DHT22;7560;51.364;12.384;2024-02-21T10:24:26;11.00;99.90
14934;DHT22;7560;51.364;12.384;2024-02-21T10:29:32;11.10;99.90
14934;DHT22;7560;51.364;12.384;2024-02-21T10:34:35;11.30;99.90
14934;DHT22;7560;51.364;12.384;2024-02-21T10:39:41;11.30;99.90
14934;DHT22;7560;51.364;12.384;2024-02-21T10:44:45;11.30;99.90
14934;DHT22;7560;51.364;12.384;2024-02-21T10:49:53;11.50;99.90
14934;DHT22;7560;51.364;12.384;2024-02-21T10:55:03;11.70;99.90
14934;DHT22;7560;51.364;12.384;2024-02-21T11:00:06;11.80;99.90
14934;DHT22;7560;51.364;12.384;2024-02-21T11:05:14;11.70;99.90
14934;DHT22;7560;51.364;12.384;2024-02-21T11:10:24;11.40;99.90
14934;DHT22;7560;51.364;12.384;2024-02-21T11:15:26;11.30;99.90
14934;DHT22;7560;51.364;12.384;2024-02-21T11:20:36;11.50;99.90
14934;DHT22;7560;51.364;12.384;2024-02-21T11:25:38;11.60;99.90
14934;DHT22;7560;51.364;12.384;2024-02-21T11:30:40;11.60;99.90
14934;DHT22;7560;51.364;12.384;2024-02-21T11:35:44;11.80;99.90
14934;DHT22;7560;51.364;12.384;2024-02-21T11:40:47;11.90;99.90
14934;DHT22;7560;51.364;12.384;2024-02-21T11:45:49;12.20;99.90
14934;DHT22;7560;51.364;12.384;2024-02-21T11:50:55;12.40;99.90
14934;DHT22;7560;51.364;12.384;2024-02-21T11:55:57;12.40;99.90
14934;DHT22;7560;51.364;12.384;2024-02-21T12:00:59;12.40;99.90
14934;DHT22;7560;51.364;12.384;2024-02-21T12:06:06;12.30;99.90
14934;DHT22;7560;51.364;12.384;2024-02-21T12:11:20;12.30;99.90
14934;DHT22;7560;51.364;12.384;2024-02-21T12:16:23;12.50;99.90
14934;DHT22;7560;51.364;12.384;2024-02-21T12:21:34;12.30;99.90
14934;DHT22;7560;51.364;12.384;2024-02-21T12:26:38;12.40;99.90
14934;DHT22;7560;51.364;12.384;2024-02-21T12:31:40;12.60;99.90
14934;DHT22;7560;51.364;12.384;2024-02-21T12:36:44;12.20;99.90
14934;DHT22;7560;51.364;12.384;2024-02-21T12:41:47;12.40;99.90
14934;DHT22;7560;51.364;12.384;2024-02-21T12:46:49;12.70;99.90
14934;DHT22;7560;51.364;12.384;2024-02-21T12:51:53;12.50;99.90
14934;DHT22;7560;51.364;12.384;2024-02-21T12:56:55;12.20;99.90
14934;DHT22;7560;51.364;12.384;2024-02-21T13:01:57;12.10;99.90
14934;DHT22;7560;51.364;12.384;2024-02-21T13:06:59;12.20;99.90
14934;DHT22;7560;51.364;12.384;2024-02-21T13:12:01;12.40;99.90
14934;DHT22;7560;51.364;12.384;2024-02-21T13:17:04;12.50;99.90
14934;DHT22;7560;51.364;12.384;2024-02-21T13:22:06;12.70;99.90
14934;DHT22;7560;51.364;12.384;2024-02-21T13:27:08;13.00;99.90
14934;DHT22;7560;51.364;12.384;2024-02-21T13:32:10;13.00;99.90
14934;DHT22;7560;51.364;12.384;2024-02-21T13:37:12;13.00;99.90
14934;DHT22;7560;51.364;12.384;2024-02-21T13:42:15;12.90;99.90
14934;DHT22;7560;51.364;12.384;2024-02-21T13:47:17;13.00;99.90
14934;DHT22;7560;51.364;12.384;2024-02-21T13:52:19;13.00;99.90
14934;DHT22;7560;51.364;12.384;2024-02-21T13:57:23;13.10;99.90
14934;DHT22;7560;51.364;12.384;2024-02-21T14:02:26;13.10;99.90
14934;DHT22;7560;51.364;12.384;2024-02-21T14:07:28;13.20;99.90
14934;DHT22;7560;51.364;12.384;2024-02-21T14:12:30;13.20;99.90
14934;DHT22;7560;51.364;12.384;2024-02-21T14:17:33;13.30;99.90
14934;DHT22;7560;51.364;12.384;2024-02-21T14:22:35;13.30;99.90
14934;DHT22;7560;51.364;12.384;2024-02-21T14:27:39;13.30;99.90
14934;DHT22;7560;51.364;12.384;2024-02-21T14:32:43;13.10;99.90
14934;DHT22;7560;51.364;12.384;2024-02-21T14:37:46;12.90;99.90
14934;DHT22;7560;51.364;12.384;2024-02-21T14:42:50;12.80;99.90
14934;DHT22;7560;51.364;12.384;2024-02-21T14:47:54;12.70;99.90
14934;DHT22;7560;51.364;12.384;2024-02-21T14:52:57;12.70;99.90
14934;DHT22;7560;51.364;12.384;2024-02-21T14:57:59;12.70;99.90
14934;DHT22;7560;51.364;12.384;2024-02-21T15:03:00;12.60;99.90
14934;DHT22;7560;51.364;12.384;2024-02-21T15:08:03;12.60;99.90
14934;DHT22;7560;51.364;12.384;2024-02-21T15:13:05;12.60;99.90
14934;DHT22;7560;51.364;12.384;2024-02-21T15:18:07;12.60;99.90
14934;DHT22;7560;51.364;12.384;2024-02-21T15:23:09;12.60;99.90
14934;DHT22;7560;51.364;12.384;2024-02-21T15:28:11;12.50;99.90
14934;DHT22;7560;51.364;12.384;2024-02-21T15:33:14;12.40;99.90
14934;DHT22;7560;51.364;12.384;2024-02-21T15:38:16;12.30;99.90
14934;DHT22;7560;51.364;12.384;2024-02-21T15:43:18;12.20;99.90
14934;DHT22;7560;51.364;12.384;2024-02-21T15:48:20;12.10;99.90
14934;DHT22;7560;51.364;12.384;2024-02-21T15:53:26;12.00;99.90
14934;DHT22;7560;51.364;12.384;2024-02-21T15:58:28;11.90;99.90
14934;DHT22;7560;51.364;12.384;2024-02-21T16:03:30;11.80;99.90
14934;DHT22;7560;51.364;12.384;2024-02-21T16:08:35;11.70;99.90
14934;DHT22;7560;51.364;12.384;2024-02-21T16:13:38;11.70;99.90
14934;DHT22;7560;51.364;12.384;2024-02-21T16:18:40;11.50;99.90
14934;DHT22;7560;51.364;12.384;2024-02-21T16:23:42;11.40;99.90
14934;DHT22;7560;51.364;12.384;2024-02-21T16:28:43;11.30;99.90
14934;DHT22;7560;51.364;12.384;2024-02-21T16:33:45;11.20;99.90
14934;DHT22;7560;51.364;12.384;2024-02-21T16:38:49;11.10;99.90
14934;DHT22;7560;51.364;12.384;2024-02-21T16:43:51;11.00;99.90
14934;DHT22;7560;51.364;12.384;2024-02-21T16:48:54;10.80;99.90
14934;DHT22;7560;51.364;12.384;2024-02-21T16:53:55;10.80;99.90
14934;DHT22;7560;51.364;12.384;2024-02-21T16:58:57;10.80;99.90
14934;DHT22;7560;51.364;12.384;2024-02-21T17:03:59;10.90;99.90
14934;DHT22;7560;51.364;12.384;2024-02-21T17:09:01;10.90;99.90
14934;DHT22;7560;51.364;12.384;2024-02-21T17:14:04;10.80;99.90
14934;DHT22;7560;51.364;12.384;2024-02-21T17:19:06;10.60;99.90
14934;DHT22;7560;51.364;12.384;2024-02-21T17:24:08;10.40;99.90
14934;DHT22;7560;51.364;12.384;2024-02-21T17:29:10;10.20;99.90
14934;DHT22;7560;51.364;12.384;2024-02-21T17:34:12;10.10;99.90
14934;DHT22;7560;51.364;12.384;2024-02-21T17:39:14;10.00;99.90
14934;DHT22;7560;51.364;12.384;2024-02-21T17:44:16;10.10;99.90
14934;DHT22;7560;51.364;12.384;2024-02-21T17:49:18;10.20;99.90
14934;DHT22;7560;51.364;12.384;2024-02-21T17:54:22;10.30;99.90
14934;DHT22;7560;51.364;12.384;2024-02-21T17:59:24;10.40;99.90
14934;DHT22;7560;51.364;12.384;2024-02-21T18:04:26;10.30;99.90
14934;DHT22;7560;51.364;12.384;2024-02-21T18:09:28;10.50;99.90
14934;DHT22;7560;51.364;12.384;2024-02-21T18:14:30;10.50;99.90
14934;DHT22;7560;51.364;12.384;2024-02-21T18:19:34;10.50;99.90
14934;DHT22;7560;51.364;12.384;2024-02-21T18:24:37;10.50;99.90
14934;DHT22;7560;51.364;12.384;2024-02-21T18:29:38;10.50;99.90
14934;DHT22;7560;51.364;12.384;2024-02-21T18:34:42;10.40;99.90
14934;DHT22;7560;51.364;12.384;2024-02-21T18:39:44;10.50;99.90
14934;DHT22;7560;51.364;12.384;2024-02-21T18:44:46;10.40;99.90
14934;DHT22;7560;51.364;12.384;2024-02-21T18:49:49;10.40;99.90
14934;DHT22;7560;51.364;12.384;2024-02-21T18:54:51;10.40;99.90
14934;DHT22;7560;51.364;12.384;2024-02-21T18:59:53;10.40;99.90
14934;DHT22;7560;51.364;12.384;2024-02-21T19:04:56;10.40;99.90
14934;DHT22;7560;51.364;12.384;2024-02-21T19:09:58;10.40;99.90
14934;DHT22;7560;51.364;12.384;2024-02-21T19:15:00;10.40;99.90
14934;DHT22;7560;51.364;12.384;2024-02-21T19:20:02;10.40;99.90
14934;DHT22;7560;51.364;12.384;2024-02-21T19:25:04;10.40;99.90
14934;DHT22;7560;51.364;12.384;2024-02-21T19:30:10;10.30;99.90
14934;DHT22;7560;51.364;12.384;2024-02-21T19:35:15;10.30;99.90
14934;DHT22;7560;51.364;12.384;2024-02-21T19:40:17;10.30;99.90
14934;DHT22;7560;51.364;12.384;2024-02-21T19:45:19;10.30;99.90
14934;DHT22;7560;51.364;12.384;2024-02-21T19:50:21;10.20;99.90
14934;DHT22;7560;51.364;12.384;2024-02-21T19:55:24;10.30;99.90
14934;DHT22;7560;51.364;12.384;2024-02-21T20:00:25;10.30;99.90
14934;DHT22;7560;51.364;12.384;2024-02-21T20:05:27;10.30;99.90
14934;DHT22;7560;51.364;12.384;2024-02-21T20:10:29;10.30;99.90
14934;DHT22;7560;51.364;12.384;2024-02-21T20:15:31;10.30;99.90
14934;DHT22;7560;51.364;12.384;2024-02-21T20:20:33;10.30;99.90
14934;DHT22;7560;51.364;12.384;2024-02-21T20:25:36;10.30;99.90
14934;DHT22;7560;51.364;12.384;2024-02-21T20:30:38;10.30;99.90
14934;DHT22;7560;51.364;12.384;2024-02-21T20:35:39;10.30;99.90
14934;DHT22;7560;51.364;12.384;2024-02-21T20:40:42;10.30;99.90
14934;DHT22;7560;51.364;12.384;2024-02-21T20:45:44;10.30;99.90
14934;DHT22;7560;51.364;12.384;2024-02-21T20:50:45;10.30;99.90
14934;DHT22;7560;51.364;12.384;2024-02-21T20:55:47;10.30;99.90
14934;DHT22;7560;51.364;12.384;2024-02-21T21:00:49;10.30;99.90
14934;DHT22;7560;51.364;12.384;2024-02-21T21:05:51;10.30;99.90
14934;DHT22;7560;51.364;12.384;2024-02-21T21:10:53;10.30;99.90
14934;DHT22;7560;51.364;12.384;2024-02-21T21:15:56;10.30;99.90
14934;DHT22;7560;51.364;12.384;2024-02-21T21:20:58;10.30;99.90
14934;DHT22;7560;51.364;12.384;2024-02-21T21:26:00;10.30;99.90
14934;DHT22;7560;51.364;12.384;2024-02-21T21:31:02;10.30;99.90
14934;DHT22;7560;51.364;12.384;2024-02-21T21:36:06;10.40;99.90
14934;DHT22;7560;51.364;12.384;2024-02-21T21:41:08;10.40;99.90
14934;DHT22;7560;51.364;12.384;2024-02-21T21:46:14;10.40;99.90
14934;DHT22;7560;51.364;12.384;2024-02-21T21:51:16;10.50;99.90
14934;DHT22;7560;51.364;12.384;2024-02-21T21:56:17;10.50;99.90
14934;DHT22;7560;51.364;12.384;2024-02-21T22:01:19;10.50;99.90
14934;DHT22;7560;51.364;12.384;2024-02-21T22:06:21;10.50;99.90
14934;DHT22;7560;51.364;12.384;2024-02-21T22:11:23;10.50;99.90
14934;DHT22;7560;51.364;12.384;2024-02-21T22:16:25;10.50;99.90
14934;DHT22;7560;51.364;12.384;2024-02-21T22:21:27;10.50;99.90
14934;DHT22;7560;51.364;12.384;2024-02-21T22:26:29;10.50;99.90
14934;DHT22;7560;51.364;12.384;2024-02-21T22:31:31;10.40;99.90
14934;DHT22;7560;51.364;12.384;2024-02-21T22:36:33;10.40;99.90
14934;DHT22;7560;51.364;12.384;2024-02-21T22:41:35;10.50;99.90
14934;DHT22;7560;51.364;12.384;2024-02-21T22:46:37;10.60;99.90
14934;DHT22;7560;51.364;12.384;2024-02-21T22:51:40;10.50;99.90
14934;DHT22;7560;51.364;12.384;2024-02-21T22:56:42;10.50;99.90
14934;DHT22;7560;51.364;12.384;2024-02-21T23:01:44;10.50;99.90
14934;DHT22;7560;51.364;12.384;2024-02-21T23:06:45;10.50;99.90
14934;DHT22;7560;51.364;12.384;2024-02-21T23:11:47;10.60;99.90
14934;DHT22;7560;51.364;12.384;2024-02-21T23:16:49;10.60;99.90
14934;DHT22;7560;51.364;12.384;2024-02-21T23:21:51;10.70;99.90
14934;DHT22;7560;51.364;12.384;2024-02-21T23:26:53;10.70;99.90
14934;DHT22;7560;51.364;12.384;2024-02-21T23:31:54;10.80;99.90
14934;DHT22;7560;51.364;12.384;2024-02-21T23:36:56;10.90;99.90
14934;DHT22;7560;51.364;12.384;2024-02-21T23:41:58;11.00;99.90
14934;DHT22;7560;51.364;12.384;2024-02-21T23:47:00;11.10;99.90
14934;DHT22;7560;51.364;12.384;2024-02-21T23:52:02;11.20;99.90
14934;DHT22;7560;51.364;12.384;2024-02-21T23:57:06;11.40;99.90
